• Join FlightAware (Why Join?)
  • Login
  • US Flag 
08:06AM EST


 

Airport Tracker/Info


-or-


 

Live Flight TrackerFlight Track Log ✈ CTL309 ✈ 08-Apr-2014 ✈ KOSU - KHOC

Flight Track Log - Related Links

Times and Time Zones

All times are in EDT time to prevent confusion due to time zone crossing. See the CTL309 flight status page for this flight to view local times or setup timezone preferences in your user account.

Time Position Orientation Groundspeed Altitude Reporting Facility
EDT Latitude Longitude Course Direction KTS MPH feet Rate Location/Type
01:06AM 40.0692 -83.1094 200° South 96 110 2,000  Level Indianapolis Center
01:08AM 40.0294 -83.1286 200° South 114 131 2,900 420 Climbing Indianapolis Center
01:09AM 39.9919 -83.1486 202° Southwest 145 167 3,000  Climbing Indianapolis Center
01:10AM 39.9561 -83.1703 205° Southwest 136 157 2,900 -60 Descending Indianapolis Center
01:11AM 39.9231 -83.1867 201° Southwest 142 163 2,900  Level Indianapolis Center
01:12AM 39.8894 -83.2083 206° Southwest 138 159 2,900  Level Indianapolis Center
01:13AM 39.8475 -83.2286 200° South 138 159 2,900  Level Indianapolis Center
01:14AM 39.8142 -83.2478 204° Southwest 135 155 2,900 -60 Level Indianapolis Center
01:15AM 39.7772 -83.2608 195° South 145 167 2,800  Descending Indianapolis Center
01:16AM 39.7400 -83.2764 198° South 139 160 2,900  Climbing Indianapolis Center
01:17AM 39.6997 -83.2781 182° South 146 168 2,900  Level Indianapolis Center
01:18AM 39.6600 -83.2769 179° South 145 167 2,900  Level Indianapolis Center
01:19AM 39.6211 -83.2867 191° South 144 166 2,900 -60 Level Indianapolis Center
01:20AM 39.5792 -83.2853 179° South 151 174 2,800 -60 Descending Indianapolis Center
01:21AM 39.5406 -83.2953 191° South 142 163 2,800  Level Indianapolis Center
01:22AM 39.5000 -83.2994 185° South 143 165 2,800  Level Indianapolis Center
01:23AM 39.4633 -83.3097 192° South 134 154 2,800  Level Indianapolis Center
01:24AM 39.4272 -83.3147 186° South 138 159 2,800  Level Indianapolis Center
01:25AM 39.3889 -83.3192 185° South 138 159 2,900  Climbing Indianapolis Center
01:26AM 39.3556 -83.3250 188° South 136 157 2,800 -180 Descending Indianapolis Center
01:27AM 39.3186 -83.3483 206° Southwest 127 146 2,600 -180 Descending Indianapolis Center
01:28AM 39.2967 -83.3797 228° Southwest 120 138 2,500  Descending Indianapolis Center
01:29AM 39.2781 -83.4064 228° Southwest 123 142 2,600 -120 Climbing Indianapolis Center
01:30AM 39.2547 -83.4406 229° Southwest 121 139 2,300 -360 Descending Indianapolis Center
01:31AM 39.2250 -83.4828 228° Southwest 124 143 1,900 -420 Descending Indianapolis Center